createdAt,value
2022-12-12T00:01:42.509Z,24.38
2022-12-12T00:04:27.398Z,28.52
2022-12-12T00:07:12.772Z,25.63
2022-12-12T00:09:57.901Z,25.45
2022-12-12T00:12:43.303Z,27.55
2022-12-12T00:15:28.780Z,27.42
2022-12-12T00:18:13.758Z,26.35
2022-12-12T00:21:00.363Z,26.58
2022-12-12T00:23:46.437Z,29.55
2022-12-12T00:26:34.438Z,30.90
2022-12-12T00:29:19.803Z,27.95
2022-12-12T00:32:05.341Z,24.48
2022-12-12T00:34:50.588Z,26.70
2022-12-12T00:37:35.803Z,30.63
2022-12-12T00:40:20.756Z,27.63
2022-12-12T00:43:06.072Z,25.50
2022-12-12T00:45:51.406Z,45.28
2022-12-12T00:48:36.709Z,30.08
2022-12-12T00:51:23.552Z,26.52
2022-12-12T00:54:08.696Z,26.90
2022-12-12T00:56:54.085Z,27.67
2022-12-12T00:59:39.270Z,29.00
2022-12-12T01:02:28.090Z,30.27
2022-12-12T01:05:15.639Z,30.08
2022-12-12T01:08:00.629Z,29.95
2022-12-12T01:10:45.867Z,29.20
2022-12-12T01:13:30.979Z,33.92
2022-12-12T01:16:16.350Z,31.90
2022-12-12T01:19:01.656Z,29.83
2022-12-12T01:21:46.857Z,35.17
2022-12-12T01:24:32.203Z,34.03
2022-12-12T01:27:17.326Z,33.20
2022-12-12T01:30:02.925Z,32.13
2022-12-12T01:32:48.732Z,31.75
2022-12-12T01:35:34.502Z,35.55
2022-12-12T01:38:19.740Z,33.85
2022-12-12T01:41:05.045Z,27.67
2022-12-12T01:43:50.530Z,33.67
2022-12-12T01:46:37.983Z,31.48
2022-12-12T01:49:27.530Z,31.27
2022-12-12T01:52:17.956Z,33.33
2022-12-12T01:55:05.843Z,36.38
2022-12-12T01:57:54.578Z,32.63
2022-12-12T02:00:41.238Z,32.40
2022-12-12T02:03:27.592Z,30.27
2022-12-12T02:06:17.531Z,31.65
2022-12-12T02:09:07.004Z,34.10
2022-12-12T02:11:54.682Z,29.35
2022-12-12T02:14:43.707Z,30.65
2022-12-12T02:17:43.570Z,35.83
2022-12-12T02:20:58.233Z,34.53
2022-12-12T02:24:25.884Z,29.42
2022-12-12T02:27:17.440Z,40.75
2022-12-12T02:30:22.522Z,32.35
2022-12-12T02:33:20.586Z,30.00
2022-12-12T02:36:15.685Z,34.35
2022-12-12T02:39:30.113Z,33.65
2022-12-12T02:42:28.767Z,35.40
2022-12-12T02:45:40.199Z,36.42
2022-12-12T02:48:37.030Z,30.70
2022-12-12T02:51:23.429Z,33.85
2022-12-12T02:54:21.956Z,29.77
2022-12-12T02:57:17.752Z,30.73
2022-12-12T03:00:10.226Z,31.10
2022-12-12T03:03:15.365Z,32.33
2022-12-12T03:06:43.202Z,31.48
2022-12-12T03:10:01.706Z,32.25
2022-12-12T03:12:50.336Z,31.08
2022-12-12T03:16:06.638Z,32.33
2022-12-12T03:19:10.446Z,36.17
2022-12-12T03:22:03.471Z,34.72
2022-12-12T03:25:01.458Z,39.70
2022-12-12T03:27:57.411Z,28.63
2022-12-12T03:30:47.060Z,28.88
2022-12-12T03:33:50.403Z,27.90
2022-12-12T03:37:03.453Z,26.30
2022-12-12T03:39:54.776Z,26.08
2022-12-12T03:42:53.904Z,27.30
2022-12-12T03:45:50.267Z,25.17
2022-12-12T03:48:41.010Z,22.30
2022-12-12T03:51:29.096Z,26.60
2022-12-12T03:54:23.729Z,22.48
2022-12-12T03:57:20.744Z,28.20
2022-12-12T04:00:13.802Z,23.60
2022-12-12T04:03:10.746Z,25.02
2022-12-12T04:06:24.186Z,23.33
2022-12-12T04:09:34.228Z,22.17
2022-12-12T04:15:35.710Z,20.30
2022-12-12T04:18:36.062Z,22.05
2022-12-12T04:21:49.329Z,24.50
2022-12-12T04:24:49.934Z,21.42
2022-12-12T04:27:39.684Z,25.27
2022-12-12T04:30:25.156Z,21.10
2022-12-12T04:33:14.496Z,22.55
2022-12-12T04:36:01.827Z,21.75
2022-12-12T04:38:50.703Z,23.38
2022-12-12T04:41:37.313Z,23.13
2022-12-12T04:44:24.115Z,25.42
2022-12-12T04:47:11.466Z,23.92
2022-12-12T04:49:59.422Z,18.05
2022-12-12T04:52:46.129Z,19.13
2022-12-12T04:55:38.222Z,21.45
2022-12-12T04:58:24.239Z,19.33
2022-12-12T05:01:15.712Z,19.10
2022-12-12T05:04:05.375Z,16.50
2022-12-12T05:06:56.572Z,20.30
2022-12-12T05:09:41.464Z,21.23
2022-12-12T05:12:27.084Z,19.73
2022-12-12T05:15:13.710Z,19.67
2022-12-12T05:18:06.400Z,23.23
2022-12-12T05:20:51.494Z,21.52
2022-12-12T05:23:36.779Z,19.45
2022-12-12T05:26:25.005Z,21.38
2022-12-12T05:29:11.512Z,21.90
2022-12-12T05:31:56.901Z,20.40
2022-12-12T05:34:42.168Z,22.75
2022-12-12T05:37:27.835Z,20.88
2022-12-12T05:40:13.663Z,22.38
2022-12-12T05:42:58.606Z,20.00
2022-12-12T05:45:44.201Z,24.05
2022-12-12T05:48:29.508Z,23.37
2022-12-12T05:51:14.491Z,19.05
2022-12-12T05:54:00.250Z,19.73
2022-12-12T05:56:45.204Z,19.77
2022-12-12T05:59:31.049Z,19.77
2022-12-12T06:02:16.409Z,22.63
2022-12-12T06:05:01.724Z,21.17
2022-12-12T06:07:47.716Z,21.40
2022-12-12T06:10:32.899Z,22.08
2022-12-12T06:13:18.271Z,20.77
2022-12-12T06:16:12.833Z,21.23
2022-12-12T06:18:57.984Z,17.88
2022-12-12T06:21:43.330Z,19.80
2022-12-12T06:24:28.712Z,19.80
2022-12-12T06:27:13.786Z,18.38
2022-12-12T06:29:59.056Z,19.30
2022-12-12T06:32:43.951Z,20.85
2022-12-12T06:35:29.595Z,21.13
2022-12-12T06:38:14.473Z,19.40
2022-12-12T06:41:00.120Z,21.27
2022-12-12T06:43:45.378Z,19.30
2022-12-12T06:46:30.752Z,21.60
2022-12-12T06:49:15.941Z,20.42
2022-12-12T06:52:01.044Z,22.85
2022-12-12T06:54:46.504Z,19.80
2022-12-12T06:57:31.599Z,21.80
2022-12-12T07:00:17.002Z,23.10
2022-12-12T07:03:02.135Z,21.50
2022-12-12T07:05:47.592Z,18.45
2022-12-12T07:08:34.334Z,22.42
2022-12-12T07:11:22.324Z,18.02
2022-12-12T07:14:07.804Z,19.33
2022-12-12T07:16:52.784Z,17.33
2022-12-12T07:19:37.945Z,14.30
2022-12-12T07:22:23.229Z,16.58
2022-12-12T07:25:08.940Z,16.90
2022-12-12T07:27:53.983Z,18.33
2022-12-12T07:30:44.764Z,16.42
2022-12-12T07:33:41.079Z,17.08
2022-12-12T07:36:28.317Z,17.17
2022-12-12T07:39:20.166Z,18.15
2022-12-12T07:42:06.230Z,18.73
2022-12-12T07:44:51.373Z,19.25
2022-12-12T07:47:36.608Z,19.50
2022-12-12T07:50:22.422Z,19.05
2022-12-12T07:53:08.415Z,22.75
2022-12-12T07:55:53.474Z,21.48
2022-12-12T07:58:39.016Z,19.90
2022-12-12T08:01:26.790Z,22.00
2022-12-12T08:04:11.937Z,16.92
2022-12-12T08:07:04.057Z,16.08
2022-12-12T08:09:52.309Z,19.02
2022-12-12T08:12:37.230Z,16.40
2022-12-12T08:15:22.714Z,18.30
2022-12-12T08:18:07.788Z,19.63
2022-12-12T08:20:52.980Z,18.10
2022-12-12T08:23:39.357Z,17.42
2022-12-12T08:26:26.120Z,17.55
2022-12-12T08:29:11.809Z,18.83
2022-12-12T08:31:57.086Z,16.63
2022-12-12T08:34:42.157Z,16.80
2022-12-12T08:37:27.314Z,16.65
2022-12-12T08:40:12.890Z,12.98
2022-12-12T08:42:58.025Z,13.90
2022-12-12T08:45:42.921Z,12.25
2022-12-12T08:48:28.663Z,12.75
2022-12-12T08:51:14.984Z,14.13
2022-12-12T08:54:00.003Z,15.90
2022-12-12T08:56:45.288Z,14.48
2022-12-12T08:59:30.673Z,15.50
2022-12-12T09:02:16.015Z,16.10
2022-12-12T09:05:01.198Z,14.65
2022-12-12T09:07:46.198Z,11.35
2022-12-12T09:10:31.421Z,12.15
2022-12-12T09:13:16.952Z,13.85
2022-12-12T09:16:01.857Z,15.82
2022-12-12T09:18:49.450Z,15.02
2022-12-12T09:21:35.064Z,12.93
2022-12-12T09:24:20.180Z,11.48
2022-12-12T09:27:05.400Z,11.80
2022-12-12T09:29:50.531Z,11.75
2022-12-12T09:32:35.705Z,12.88
2022-12-12T09:35:20.827Z,12.25
2022-12-12T09:38:12.432Z,12.05
2022-12-12T09:41:20.772Z,11.35
2022-12-12T09:44:12.657Z,10.82
2022-12-12T09:47:05.047Z,14.80
2022-12-12T09:49:54.207Z,12.90
2022-12-12T09:52:41.227Z,12.48
2022-12-12T09:55:33.723Z,12.63
2022-12-12T09:58:47.303Z,13.02
2022-12-12T10:01:43.481Z,13.60
2022-12-12T10:04:39.327Z,11.27
2022-12-12T10:07:34.716Z,11.93
2022-12-12T10:10:27.751Z,12.77
2022-12-12T10:13:21.428Z,11.63
2022-12-12T10:16:09.577Z,12.65
2022-12-12T10:19:05.673Z,20.85
2022-12-12T10:21:52.996Z,21.58
2022-12-12T10:25:25.465Z,13.70
2022-12-12T10:28:19.805Z,14.43
2022-12-12T10:31:23.628Z,14.88
2022-12-12T10:34:24.115Z,14.35
2022-12-12T10:37:52.799Z,13.18
2022-12-12T10:41:06.879Z,13.07
2022-12-12T10:44:20.681Z,13.93
2022-12-12T10:47:08.913Z,12.32
2022-12-12T10:50:10.056Z,14.32
2022-12-12T10:52:58.193Z,22.60
2022-12-12T10:56:07.807Z,33.75
2022-12-12T10:58:55.973Z,16.73
2022-12-12T11:02:11.301Z,17.83
2022-12-12T11:04:46.512Z,13.93
2022-12-12T11:07:41.016Z,17.27
2022-12-12T11:10:34.030Z,16.38
2022-12-12T11:13:19.872Z,15.13
2022-12-12T11:16:15.537Z,16.80
2022-12-12T11:19:36.485Z,15.13
2022-12-12T11:22:21.837Z,16.80
2022-12-12T11:25:06.908Z,15.52
2022-12-12T11:27:53.932Z,17.80
2022-12-12T11:30:43.610Z,13.93
2022-12-12T11:33:35.520Z,12.70
2022-12-12T11:36:31.300Z,12.85
2022-12-12T11:39:28.439Z,21.67
2022-12-12T11:42:13.335Z,14.15
2022-12-12T11:45:04.826Z,13.95
2022-12-12T11:47:50.026Z,15.15
2022-12-12T11:50:46.318Z,19.45
2022-12-12T11:53:34.654Z,15.55
2022-12-12T11:56:45.075Z,20.75
2022-12-12T11:59:48.898Z,24.42
2022-12-12T12:03:19.359Z,20.95
2022-12-12T12:06:13.535Z,22.45
2022-12-12T12:09:29.802Z,19.48
2022-12-12T12:12:24.788Z,22.52
2022-12-12T12:15:37.648Z,28.05
2022-12-12T12:18:36.503Z,24.48
2022-12-12T12:21:39.909Z,21.90
2022-12-12T12:24:34.263Z,28.42
2022-12-12T12:27:33.060Z,28.50
2022-12-12T12:30:27.449Z,24.27
2022-12-12T12:33:25.047Z,31.73
2022-12-12T12:36:22.535Z,36.95
2022-12-12T12:39:16.851Z,58.70
2022-12-12T12:42:29.853Z,28.20
2022-12-12T12:45:26.962Z,24.52
2022-12-12T12:48:19.672Z,24.05
2022-12-12T12:51:20.407Z,27.02
2022-12-12T12:54:14.992Z,23.35
2022-12-12T12:57:07.286Z,28.10
2022-12-12T12:59:57.713Z,25.33
2022-12-12T13:02:54.205Z,26.35
2022-12-12T13:05:45.365Z,25.23
2022-12-12T13:08:55.552Z,23.92
2022-12-12T13:11:44.559Z,24.73
2022-12-12T13:14:50.909Z,29.88
2022-12-12T13:17:47.241Z,41.38
2022-12-12T13:20:41.303Z,37.80
2022-12-12T13:24:00.694Z,34.38
2022-12-12T13:27:09.589Z,26.95
2022-12-12T13:30:04.868Z,27.80
2022-12-12T13:33:20.643Z,27.35
2022-12-12T13:36:13.058Z,34.38
2022-12-12T13:39:00.688Z,30.85
2022-12-12T13:42:01.252Z,29.40
2022-12-12T13:44:48.737Z,34.20
2022-12-12T13:47:33.669Z,32.83
2022-12-12T13:50:22.732Z,33.20
2022-12-12T13:53:07.639Z,35.22
2022-12-12T13:56:38.412Z,36.70
2022-12-12T13:59:23.681Z,34.78
2022-12-12T14:02:32.730Z,36.75
2022-12-12T14:05:25.712Z,36.30
2022-12-12T14:08:10.891Z,40.33
2022-12-12T14:10:59.036Z,39.60
2022-12-12T14:13:45.922Z,36.60
2022-12-12T14:16:31.321Z,31.05
2022-12-12T14:19:29.942Z,35.63
2022-12-12T14:22:50.416Z,34.35
2022-12-12T14:25:38.874Z,37.55
2022-12-12T14:28:32.952Z,41.30
2022-12-12T14:31:18.313Z,36.75
2022-12-12T14:34:06.557Z,38.10
2022-12-12T14:37:04.663Z,38.97
2022-12-12T14:40:12.755Z,34.05
2022-12-12T14:43:19.877Z,30.98
2022-12-12T14:46:15.705Z,36.15
2022-12-12T14:49:05.624Z,33.97
2022-12-12T14:54:37.413Z,30.67
2022-12-12T14:57:24.213Z,38.35
2022-12-12T15:00:18.477Z,36.53
2022-12-12T15:03:04.371Z,38.70
2022-12-12T15:06:24.588Z,31.63
2022-12-12T15:09:25.952Z,35.58
2022-12-12T15:12:10.957Z,37.72
2022-12-12T15:14:57.591Z,42.63
2022-12-12T15:17:48.249Z,45.22
2022-12-12T15:20:33.546Z,48.08
2022-12-12T15:23:19.718Z,46.55
2022-12-12T15:26:04.841Z,47.65
2022-12-12T15:28:50.187Z,48.45
2022-12-12T15:31:35.685Z,46.95
2022-12-12T15:34:33.214Z,50.90
2022-12-12T15:37:18.162Z,46.25
2022-12-12T15:40:03.254Z,46.17
2022-12-12T15:42:52.869Z,47.20
2022-12-12T15:46:14.161Z,58.75
2022-12-12T15:48:59.981Z,54.47
2022-12-12T15:51:45.214Z,46.00
2022-12-12T15:54:30.681Z,56.10
2022-12-12T15:57:18.273Z,61.97
2022-12-12T16:00:09.689Z,62.88
2022-12-12T16:03:19.809Z,103.75
2022-12-12T16:06:17.076Z,109.38
2022-12-12T16:09:11.293Z,132.18
2022-12-12T16:11:59.457Z,71.22
2022-12-12T16:14:44.561Z,71.85
2022-12-12T16:17:31.135Z,60.95
2022-12-12T16:20:16.486Z,48.90
2022-12-12T16:23:17.996Z,77.20
2022-12-12T16:26:03.005Z,81.97
2022-12-12T16:28:48.322Z,56.55
2022-12-12T16:31:33.761Z,62.55
2022-12-12T16:34:19.040Z,50.85
2022-12-12T16:37:04.413Z,79.95
2022-12-12T16:39:49.777Z,64.13
2022-12-12T16:42:36.187Z,59.15
2022-12-12T16:45:21.675Z,53.67
2022-12-12T16:48:14.517Z,48.25
2022-12-12T16:51:09.074Z,48.80
2022-12-12T16:53:55.833Z,53.50
2022-12-12T16:56:41.255Z,51.50
2022-12-12T16:59:26.569Z,54.67
2022-12-12T17:02:23.901Z,52.88
2022-12-12T17:05:23.407Z,54.33
2022-12-12T17:08:08.572Z,42.83
2022-12-12T17:11:09.671Z,32.63
2022-12-12T17:13:55.790Z,34.30
2022-12-12T17:16:40.707Z,31.08
2022-12-12T17:19:28.593Z,33.05
2022-12-12T17:22:13.924Z,29.55
2022-12-12T17:24:59.088Z,29.92
2022-12-12T17:27:44.368Z,28.42
2022-12-12T17:30:29.254Z,33.60
2022-12-12T17:33:17.286Z,34.15
2022-12-12T17:36:05.478Z,33.35
2022-12-12T17:38:50.520Z,31.60
2022-12-12T17:41:35.766Z,29.48
2022-12-12T17:44:22.893Z,32.30
2022-12-12T17:47:08.136Z,32.65
2022-12-12T17:49:53.502Z,31.10
2022-12-12T17:52:38.640Z,30.02
2022-12-12T17:55:52.421Z,34.03
2022-12-12T17:58:32.653Z,34.47
2022-12-12T18:01:28.159Z,33.65
2022-12-12T18:04:13.722Z,34.20
2022-12-12T18:06:58.842Z,36.65
2022-12-12T18:09:44.162Z,35.05
2022-12-12T18:12:29.405Z,33.63
2022-12-12T18:15:14.496Z,33.45
2022-12-12T18:18:04.686Z,38.60
2022-12-12T18:20:49.958Z,34.05
2022-12-12T18:23:35.870Z,31.67
2022-12-12T18:26:23.771Z,35.63
2022-12-12T18:29:09.322Z,27.48
2022-12-12T18:31:54.518Z,30.17
2022-12-12T18:34:40.151Z,31.95
2022-12-12T18:37:24.979Z,29.42
2022-12-12T18:40:10.319Z,31.95
2022-12-12T18:42:55.488Z,31.65
2022-12-12T18:45:41.094Z,32.88
2022-12-12T18:48:26.386Z,34.25
2022-12-12T18:51:14.691Z,29.83
2022-12-12T18:54:03.213Z,28.40
2022-12-12T18:56:48.387Z,25.83
2022-12-12T18:59:33.588Z,28.90
2022-12-12T19:02:18.969Z,29.08
2022-12-12T19:05:05.912Z,25.17
2022-12-12T19:07:50.996Z,27.73
2022-12-12T19:10:37.938Z,27.85
2022-12-12T19:13:23.045Z,34.05
2022-12-12T19:16:19.411Z,30.58
2022-12-12T19:19:06.372Z,28.92
2022-12-12T19:21:52.433Z,29.83
2022-12-12T19:24:40.994Z,31.10
2022-12-12T19:27:25.971Z,30.88
2022-12-12T19:30:13.494Z,29.58
2022-12-12T19:32:58.813Z,29.20
2022-12-12T19:35:44.030Z,32.28
2022-12-12T19:38:30.594Z,30.80
2022-12-12T19:41:17.900Z,35.45
2022-12-12T19:44:04.199Z,37.50
2022-12-12T19:46:49.456Z,32.60
2022-12-12T19:49:34.443Z,35.58
2022-12-12T19:52:19.761Z,32.17
2022-12-12T19:55:05.210Z,30.85
2022-12-12T19:57:50.128Z,32.75
2022-12-12T20:00:35.163Z,30.98
2022-12-12T20:03:21.623Z,27.88
2022-12-12T20:06:11.150Z,33.50
2022-12-12T20:08:59.563Z,30.08
2022-12-12T20:11:45.422Z,29.20
2022-12-12T20:14:33.428Z,26.67
2022-12-12T20:17:18.456Z,28.67
2022-12-12T20:20:04.681Z,29.58
2022-12-12T20:22:50.041Z,27.55
2022-12-12T20:25:35.049Z,29.77
2022-12-12T20:28:20.132Z,28.85
2022-12-12T20:31:16.960Z,28.75
2022-12-12T20:34:02.089Z,28.60
2022-12-12T20:36:48.080Z,27.20
2022-12-12T20:39:35.325Z,27.50
2022-12-12T20:42:20.484Z,30.77
2022-12-12T20:45:06.385Z,25.48
2022-12-12T20:47:52.136Z,31.88
2022-12-12T20:50:37.288Z,33.90
2022-12-12T20:53:22.252Z,28.33
2022-12-12T20:56:11.194Z,29.30
2022-12-12T20:58:59.796Z,28.38
2022-12-12T21:01:47.133Z,30.13
2022-12-12T21:04:32.889Z,30.40
2022-12-12T21:07:18.299Z,29.55
2022-12-12T21:10:03.579Z,29.13
2022-12-12T21:12:48.992Z,28.85
2022-12-12T21:15:34.899Z,29.27
2022-12-12T21:18:20.423Z,31.88
2022-12-12T21:21:06.290Z,28.65
2022-12-12T21:23:52.355Z,34.70
2022-12-12T21:26:37.632Z,31.77
2022-12-12T21:29:23.031Z,33.05
2022-12-12T21:32:07.971Z,29.60
2022-12-12T21:34:53.244Z,33.28
2022-12-12T21:37:40.522Z,36.47
2022-12-12T21:40:26.644Z,30.67
2022-12-12T21:43:12.017Z,30.05
2022-12-12T21:45:57.279Z,29.48
2022-12-12T21:48:42.522Z,29.40
2022-12-12T21:51:27.607Z,35.40
2022-12-12T21:54:14.683Z,38.33
2022-12-12T21:57:00.718Z,37.17
2022-12-12T21:59:48.783Z,39.42
2022-12-12T22:02:34.009Z,35.28
2022-12-12T22:05:19.434Z,34.63
2022-12-12T22:08:04.598Z,36.72
2022-12-12T22:10:54.468Z,35.88
2022-12-12T22:16:25.639Z,33.83
2022-12-12T22:19:12.831Z,32.40
2022-12-12T22:21:58.198Z,34.20
2022-12-12T22:24:43.228Z,33.10
2022-12-12T22:27:28.223Z,31.25
2022-12-12T22:30:13.401Z,34.08
2022-12-12T22:32:58.714Z,31.70
2022-12-12T22:35:43.844Z,34.72
2022-12-12T22:38:29.720Z,32.78
2022-12-12T22:41:15.723Z,34.28
2022-12-12T22:44:03.596Z,32.95
2022-12-12T22:46:51.092Z,32.65
2022-12-12T22:49:36.543Z,31.08
2022-12-12T22:52:21.844Z,30.00
2022-12-12T22:55:07.253Z,28.58
2022-12-12T22:57:52.148Z,27.45
2022-12-12T23:00:37.259Z,28.35
2022-12-12T23:03:22.671Z,32.17
2022-12-12T23:06:17.660Z,34.53
2022-12-12T23:09:14.183Z,36.10
2022-12-12T23:11:59.454Z,34.45
2022-12-12T23:14:44.828Z,31.85
2022-12-12T23:17:30.163Z,34.95
2022-12-12T23:20:15.412Z,32.45
2022-12-12T23:23:00.630Z,37.47
2022-12-12T23:25:45.905Z,40.53
2022-12-12T23:28:30.876Z,35.85
2022-12-12T23:31:20.003Z,35.15
2022-12-12T23:34:09.813Z,37.00
2022-12-12T23:36:55.266Z,34.22
2022-12-12T23:39:40.351Z,34.53
2022-12-12T23:42:25.499Z,31.35
2022-12-12T23:45:10.789Z,35.92
2022-12-12T23:47:56.100Z,32.65
2022-12-12T23:50:41.211Z,36.28
2022-12-12T23:53:27.319Z,36.60
2022-12-12T23:56:12.405Z,34.42
2022-12-12T23:58:59.008Z,37.03
